Main page
METAR-TAF:

METAR-TAF

Airports :

NWS Office

Majuro, Marshall Islands

latitude: 07-05N, longitude: 171-12E, elevation: 4 m

Current weather observation

The report was made 8 minutes ago, at 17:54 UTC
Calm wind
Temperature 26°C
Humidity 89%
Pressure 1009 hPa
Visibility: 24.1 km
Few clouds at a height of 1400 ft
Scattered clouds at a height of 5000 ft
Broken clouds at a height of 11000 ft
Overcast at a height of 30000 ft

METAR: PKMR 211754Z 00000KT 15SM FEW014 SCT050 BKN110 OVC300 26/24 A2979 RMK SLP091 60052 8/878 T02580235 10258 20246 55003

Time: 06:02 (18:02 UTC)


TAF: missing

Weather observations and forecasts of more than 4000 airports (METAR and TAF reports).

The available stations are represented by yellow and red dots on the map.

Hover mouse over dot to see the name of the station.

Then click to see weather observations and forecasts.

To change the map : click on the green buttons with a black cross to zoom in, on the green button with a dash to zoom out, or on the green arrows for adjacent maps.


METAR-TAF: